Time;durP1;ratioP1;P1;durP2;ratioP2;P2;SDS_P1;SDS_P2;PMS_P1;PMS_P2;Temp;Humidity;BMP_temperature;BMP_pressure;BME280_temperature;BME280_humidity;BME280_pressure;Samples;Min_cycle;Max_cycle;Signal;HPM_P1;HPM_P2
2022/03/21 00:01:39;;;;;;;10.30;9.30;;;;;;;;;;6136768;28;20228;-73
2022/03/21 00:04:59;;;;;;;12.57;10.97;;;;;;;;;;6134446;28;20357;-73
2022/03/21 00:08:22;;;;;;;12.13;10.67;;;;;;;;;;6139348;28;20231;-72
2022/03/21 00:11:43;;;;;;;10.73;9.67;;;;;;;;;;6136076;28;20235;-74
2022/03/21 00:15:05;;;;;;;10.93;9.63;;;;;;;;;;6135272;28;20227;-73
2022/03/21 00:18:27;;;;;;;11.43;10.23;;;;;;;;;;6136934;28;20227;-73
2022/03/21 00:21:48;;;;;;;11.13;9.80;;;;;;;;;;6142278;28;20234;-73
2022/03/21 00:25:10;;;;;;;10.73;9.73;;;;;;;;;;6137548;28;20283;-74
2022/03/21 00:28:31;;;;;;;12.50;11.10;;;;;;;;;;6137600;28;20219;-73
2022/03/21 00:31:54;;;;;;;11.30;10.20;;;;;;;;;;6120720;28;20231;-74
2022/03/21 00:35:16;;;;;;;11.73;10.53;;;;;;;;;;6118789;28;20231;-73
2022/03/21 00:38:37;;;;;;;12.33;11.10;;;;;;;;;;6138629;28;20227;-72
2022/03/21 00:41:58;;;;;;;11.73;10.53;;;;;;;;;;6137157;28;20262;-73
2022/03/21 00:45:21;;;;;;;12.53;11.23;;;;;;;;;;6133829;28;20244;-73
2022/03/21 00:48:42;;;;;;;13.57;11.13;;;;;;;;;;6133624;28;20228;-74
2022/03/21 00:52:05;;;;;;;12.67;11.23;;;;;;;;;;6136139;28;20231;-73
2022/03/21 00:55:28;;;;;;;13.47;11.93;;;;;;;;;;6122285;28;20620;-74
2022/03/21 00:58:49;;;;;;;11.17;10.17;;;;;;;;;;6133984;28;20742;-74
2022/03/21 01:02:12;;;;;;;12.37;10.73;;;;;;;;;;6135021;28;20231;-73
2022/03/21 01:05:33;;;;;;;11.27;10.23;;;;;;;;;;6135070;28;20321;-73
2022/03/21 01:08:55;;;;;;;11.67;10.47;;;;;;;;;;6136379;28;20530;-73
2022/03/21 01:12:16;;;;;;;11.37;10.17;;;;;;;;;;6137476;28;20597;-73
2022/03/21 01:15:37;;;;;;;11.40;10.43;;;;;;;;;;6129289;28;20595;-73
2022/03/21 01:18:57;;;;;;;11.53;10.43;;;;;;;;;;6132654;28;20250;-73
2022/03/21 01:22:18;;;;;;;11.40;10.30;;;;;;;;;;6138814;28;20235;-72
2022/03/21 01:25:41;;;;;;;12.33;11.03;;;;;;;;;;6121719;28;20215;-74
2022/03/21 01:29:02;;;;;;;12.30;11.03;;;;;;;;;;6135413;28;21132;-72
2022/03/21 01:32:23;;;;;;;13.00;11.63;;;;;;;;;;6133937;28;20250;-74
2022/03/21 01:35:44;;;;;;;11.43;10.33;;;;;;;;;;6136173;28;20242;-73
2022/03/21 01:39:05;;;;;;;11.63;10.37;;;;;;;;;;6125714;28;20227;-73
2022/03/21 01:42:27;;;;;;;11.60;10.27;;;;;;;;;;6135907;28;20721;-73
2022/03/21 01:45:48;;;;;;;12.23;11.03;;;;;;;;;;6129031;28;20609;-73
2022/03/21 01:49:10;;;;;;;11.87;10.77;;;;;;;;;;6132429;28;20231;-72
2022/03/21 01:52:31;;;;;;;11.40;10.30;;;;;;;;;;6131831;28;20517;-72
2022/03/21 01:55:50;;;;;;;12.50;10.70;;;;;;;;;;6135443;28;20263;-74
2022/03/21 01:59:14;;;;;;;12.10;10.90;;;;;;;;;;6135837;28;20231;-75
2022/03/21 02:02:35;;;;;;;12.50;11.20;;;;;;;;;;6137235;28;20235;-73
2022/03/21 02:05:56;;;;;;;12.43;11.13;;;;;;;;;;6129482;28;20231;-73
2022/03/21 02:09:17;;;;;;;12.60;11.40;;;;;;;;;;6139375;28;20629;-74
2022/03/21 02:12:38;;;;;;;11.90;10.60;;;;;;;;;;6140990;28;20235;-73
2022/03/21 02:16:01;;;;;;;14.60;11.10;;;;;;;;;;6140929;28;20231;-73
2022/03/21 02:19:23;;;;;;;13.90;12.30;;;;;;;;;;6139489;28;20286;-73
2022/03/21 02:22:50;;;;;;;17.10;11.80;;;;;;;;;;6139215;28;20235;-72
2022/03/21 02:26:13;;;;;;;11.00;9.80;;;;;;;;;;6138561;28;20223;-74
2022/03/21 02:29:34;;;;;;;13.97;12.07;;;;;;;;;;6136560;28;20251;-73
2022/03/21 02:32:56;;;;;;;11.93;10.53;;;;;;;;;;6138962;28;20247;-74
2022/03/21 02:36:17;;;;;;;11.93;10.73;;;;;;;;;;6137624;28;20334;-73
2022/03/21 02:39:38;;;;;;;11.50;10.37;;;;;;;;;;6138327;28;20571;-73
2022/03/21 02:43:00;;;;;;;12.07;10.30;;;;;;;;;;6140032;28;20238;-73
2022/03/21 02:46:22;;;;;;;11.80;10.63;;;;;;;;;;6134622;28;20260;-73
2022/03/21 02:49:42;;;;;;;12.70;11.33;;;;;;;;;;6140186;28;20448;-73
2022/03/21 02:53:04;;;;;;;12.10;10.97;;;;;;;;;;6140953;28;20227;-72
2022/03/21 02:56:26;;;;;;;12.17;11.03;;;;;;;;;;6136469;28;20266;-73
2022/03/21 02:59:48;;;;;;;13.00;11.40;;;;;;;;;;6138456;28;20310;-73
2022/03/21 03:03:09;;;;;;;13.93;11.83;;;;;;;;;;6141183;28;20322;-73
2022/03/21 03:06:29;;;;;;;12.90;11.10;;;;;;;;;;6138941;28;20616;-73
2022/03/21 03:09:50;;;;;;;11.70;10.50;;;;;;;;;;6137471;28;20228;-73
2022/03/21 03:13:11;;;;;;;12.13;10.93;;;;;;;;;;6141451;28;20227;-73
2022/03/21 03:16:34;;;;;;;13.03;11.80;;;;;;;;;;6141746;28;20230;-73
2022/03/21 03:19:55;;;;;;;13.27;11.83;;;;;;;;;;6139426;28;20235;-74
2022/03/21 03:23:17;;;;;;;11.80;10.70;;;;;;;;;;6134996;28;20342;-73
2022/03/21 03:26:38;;;;;;;11.13;9.93;;;;;;;;;;6137451;28;20235;-74
2022/03/21 03:30:00;;;;;;;13.00;11.70;;;;;;;;;;6135493;28;20227;-75
2022/03/21 03:33:23;;;;;;;13.83;12.33;;;;;;;;;;6138592;28;20235;-73
2022/03/21 03:36:43;;;;;;;12.93;11.23;;;;;;;;;;6139498;28;20811;-74
2022/03/21 03:40:06;;;;;;;11.83;10.17;;;;;;;;;;6138252;28;20614;-74
2022/03/21 03:43:26;;;;;;;13.83;12.43;;;;;;;;;;6138262;28;20637;-72
2022/03/21 03:46:47;;;;;;;12.80;11.50;;;;;;;;;;6138062;28;20239;-73
2022/03/21 03:50:10;;;;;;;13.00;10.93;;;;;;;;;;6135494;28;20239;-74
2022/03/21 03:53:31;;;;;;;11.40;10.27;;;;;;;;;;6137297;28;20258;-74
2022/03/21 03:56:52;;;;;;;14.00;12.43;;;;;;;;;;6138121;28;20240;-74
2022/03/21 04:00:16;;;;;;;12.90;11.60;;;;;;;;;;6139509;28;20235;-73
2022/03/21 04:03:46;;;;;;;14.30;12.43;;;;;;;;;;6134995;28;20243;-73
2022/03/21 04:07:08;;;;;;;12.27;10.97;;;;;;;;;;6139509;28;20231;-73
2022/03/21 04:10:29;;;;;;;12.37;11.17;;;;;;;;;;6137008;28;20327;-73
2022/03/21 04:13:53;;;;;;;12.47;11.17;;;;;;;;;;6136501;28;20231;-72
2022/03/21 04:17:13;;;;;;;11.97;10.67;;;;;;;;;;6138446;28;20322;-72
2022/03/21 04:20:36;;;;;;;14.03;11.37;;;;;;;;;;6133948;28;20271;-73
2022/03/21 04:24:00;;;;;;;13.97;12.57;;;;;;;;;;6136317;28;20231;-73
2022/03/21 04:27:20;;;;;;;14.57;12.93;;;;;;;;;;6136122;28;20239;-74
2022/03/21 04:30:42;;;;;;;13.47;12.17;;;;;;;;;;6133666;28;20239;-73
2022/03/21 04:34:03;;;;;;;12.20;10.83;;;;;;;;;;6123763;28;20239;-73
2022/03/21 04:37:24;;;;;;;13.33;12.13;;;;;;;;;;6135372;28;20227;-74
2022/03/21 04:40:48;;;;;;;13.37;12.03;;;;;;;;;;6135527;28;20239;-74
2022/03/21 04:44:09;;;;;;;12.87;11.53;;;;;;;;;;6133414;28;20223;-73
2022/03/21 04:47:30;;;;;;;14.03;12.13;;;;;;;;;;6134655;28;20259;-73
2022/03/21 04:50:51;;;;;;;13.77;12.47;;;;;;;;;;6134802;28;20649;-74
2022/03/21 04:54:11;;;;;;;13.00;11.87;;;;;;;;;;6134354;28;20313;-74
2022/03/21 04:57:34;;;;;;;13.03;11.80;;;;;;;;;;6135229;28;20727;-74
2022/03/21 05:00:54;;;;;;;14.33;11.67;;;;;;;;;;6131622;28;20537;-72
2022/03/21 05:04:15;;;;;;;13.63;12.33;;;;;;;;;;6134022;28;20274;-73
2022/03/21 05:07:39;;;;;;;14.37;12.80;;;;;;;;;;6139309;28;20585;-72
2022/03/21 05:11:00;;;;;;;16.67;13.63;;;;;;;;;;6133163;28;20243;-74
2022/03/21 05:14:22;;;;;;;16.10;12.33;;;;;;;;;;6129053;28;20866;-74
2022/03/21 05:17:44;;;;;;;13.43;12.03;;;;;;;;;;6133270;28;20499;-73
2022/03/21 05:21:06;;;;;;;13.80;12.40;;;;;;;;;;6137119;28;20223;-74
2022/03/21 05:31:44;;;;;;;13.60;12.30;;;;;;;;;;6132639;28;20239;-73
2022/03/21 05:38:44;;;;;;;12.83;11.50;;;;;;;;;;6140827;28;20337;-73
2022/03/21 05:42:05;;;;;;;13.27;11.93;;;;;;;;;;6139178;28;20235;-74
2022/03/21 05:45:28;;;;;;;12.93;11.53;;;;;;;;;;6134713;28;20407;-74
2022/03/21 05:48:58;;;;;;;13.33;11.93;;;;;;;;;;6124450;28;20231;-74
2022/03/21 05:52:19;;;;;;;12.33;11.13;;;;;;;;;;6139974;28;20235;-72
2022/03/21 05:55:40;;;;;;;13.80;12.40;;;;;;;;;;6139555;28;20239;-72
2022/03/21 06:00:20;;;;;;;13.13;11.37;;;;;;;;;;6144590;28;20235;-74
2022/03/21 06:02:43;;;;;;;13.70;11.90;;;;;;;;;;6139710;28;20223;-73
2022/03/21 06:06:05;;;;;;;12.47;11.20;;;;;;;;;;6141818;28;20247;-73
2022/03/21 06:09:26;;;;;;;15.90;13.40;;;;;;;;;;6141445;28;20348;-74
2022/03/21 06:12:49;;;;;;;14.63;13.23;;;;;;;;;;6135930;28;20589;-73
2022/03/21 06:16:10;;;;;;;12.40;11.17;;;;;;;;;;6133293;28;20231;-73
2022/03/21 06:19:31;;;;;;;13.03;11.70;;;;;;;;;;6133516;28;20254;-73
2022/03/21 06:22:54;;;;;;;16.47;14.77;;;;;;;;;;6131842;28;20222;-74
2022/03/21 06:26:15;;;;;;;12.87;11.77;;;;;;;;;;6134520;28;20227;-72
2022/03/21 06:29:39;;;;;;;14.50;11.40;;;;;;;;;;6135451;28;20223;-74
2022/03/21 06:33:00;;;;;;;13.57;11.73;;;;;;;;;;6137021;28;20266;-73
2022/03/21 06:36:20;;;;;;;14.30;12.90;;;;;;;;;;6132312;28;20617;-72
2022/03/21 06:39:42;;;;;;;13.87;11.67;;;;;;;;;;6131218;28;20231;-73
2022/03/21 06:43:03;;;;;;;13.60;12.23;;;;;;;;;;6133946;28;20243;-70
2022/03/21 06:46:24;;;;;;;13.57;12.17;;;;;;;;;;6131743;28;20572;-73
2022/03/21 06:49:46;;;;;;;14.10;12.63;;;;;;;;;;6137164;28;20231;-73
2022/03/21 06:53:07;;;;;;;12.80;11.50;;;;;;;;;;6131904;28;20243;-74
2022/03/21 06:56:29;;;;;;;13.97;12.43;;;;;;;;;;6122081;29;20950;-74
2022/03/21 06:59:50;;;;;;;13.17;11.87;;;;;;;;;;6426168;23;20265;-73
2022/03/21 07:03:11;;;;;;;14.27;12.73;;;;;;;;;;6142842;28;20679;-73
2022/03/21 07:06:32;;;;;;;18.23;13.17;;;;;;;;;;6156214;28;20450;-70
2022/03/21 07:09:53;;;;;;;16.50;11.83;;;;;;;;;;6154747;28;20239;-70
2022/03/21 07:13:15;;;;;;;14.37;12.90;;;;;;;;;;6155209;28;20639;-70
2022/03/21 07:16:37;;;;;;;15.83;12.60;;;;;;;;;;6159297;28;20344;-74
2022/03/21 07:19:58;;;;;;;13.47;11.73;;;;;;;;;;6152943;28;20227;-71
2022/03/21 07:23:19;;;;;;;14.63;13.23;;;;;;;;;;6151094;28;20238;-73
2022/03/21 07:26:39;;;;;;;16.40;14.63;;;;;;;;;;6159039;28;20223;-70
2022/03/21 07:30:02;;;;;;;14.23;12.23;;;;;;;;;;6159404;28;20230;-74
2022/03/21 07:33:23;;;;;;;13.60;12.30;;;;;;;;;;6161703;28;20222;-74
2022/03/21 07:36:44;;;;;;;13.67;11.80;;;;;;;;;;6167466;28;20250;-73
2022/03/21 07:40:08;;;;;;;15.03;13.53;;;;;;;;;;6158871;28;20237;-74
2022/03/21 07:43:28;;;;;;;14.83;13.33;;;;;;;;;;6164595;28;20226;-70
2022/03/21 07:50:29;;;;;;;15.77;12.57;;;;;;;;;;6157695;28;20234;-76
2022/03/21 07:53:50;;;;;;;13.97;12.60;;;;;;;;;;6153660;28;20242;-71
2022/03/21 07:57:11;;;;;;;15.07;13.60;;;;;;;;;;6149478;28;20604;-73
2022/03/21 08:00:32;;;;;;;13.27;11.97;;;;;;;;;;6164682;28;20321;-72
2022/03/21 08:03:54;;;;;;;16.90;12.90;;;;;;;;;;6160623;28;20616;-74
2022/03/21 08:07:15;;;;;;;13.73;12.33;;;;;;;;;;6159008;28;20234;-75
2022/03/21 08:10:36;;;;;;;14.47;12.93;;;;;;;;;;6150172;28;20313;-75
2022/03/21 08:13:57;;;;;;;13.37;12.07;;;;;;;;;;6156253;28;20234;-75
2022/03/21 08:17:18;;;;;;;14.30;12.27;;;;;;;;;;6156123;28;20234;-73
2022/03/21 08:20:43;;;;;;;13.37;11.97;;;;;;;;;;6152511;28;20238;-72
2022/03/21 08:24:06;;;;;;;18.60;14.47;;;;;;;;;;6153407;28;20855;-74
2022/03/21 08:27:27;;;;;;;14.13;12.47;;;;;;;;;;6147817;28;20282;-71
2022/03/21 08:30:48;;;;;;;13.47;12.17;;;;;;;;;;6152195;28;20262;-72
2022/03/21 08:34:09;;;;;;;13.50;12.23;;;;;;;;;;6154077;28;20249;-73
2022/03/21 08:37:31;;;;;;;14.83;13.10;;;;;;;;;;6152827;28;20287;-73
2022/03/21 08:40:52;;;;;;;14.77;13.17;;;;;;;;;;6158099;28;20246;-71
2022/03/21 08:44:12;;;;;;;14.63;13.20;;;;;;;;;;6154690;28;20234;-73
2022/03/21 08:47:34;;;;;;;15.80;13.63;;;;;;;;;;6162230;28;20222;-72
2022/03/21 08:50:55;;;;;;;14.57;13.20;;;;;;;;;;6156353;28;20247;-71
2022/03/21 08:54:18;;;;;;;15.73;14.33;;;;;;;;;;6158962;28;20238;-71
2022/03/21 08:57:39;;;;;;;14.00;12.37;;;;;;;;;;6151094;28;20588;-73
2022/03/21 09:01:00;;;;;;;14.93;13.33;;;;;;;;;;6152216;28;21209;-70
2022/03/21 09:04:21;;;;;;;15.03;12.87;;;;;;;;;;6161504;28;20262;-70
2022/03/21 09:07:42;;;;;;;16.33;12.33;;;;;;;;;;6156206;28;20233;-71
2022/03/21 09:11:05;;;;;;;14.13;12.63;;;;;;;;;;6157138;28;20239;-70
2022/03/21 09:14:26;;;;;;;16.33;13.43;;;;;;;;;;6163679;28;20238;-69
2022/03/21 09:17:46;;;;;;;14.57;13.10;;;;;;;;;;6155948;28;20230;-72
2022/03/21 09:21:08;;;;;;;13.87;12.50;;;;;;;;;;6158226;28;20226;-73
2022/03/21 09:24:29;;;;;;;14.70;13.20;;;;;;;;;;6157940;28;20238;-72
2022/03/21 09:27:51;;;;;;;14.30;12.70;;;;;;;;;;6157577;28;20639;-71
2022/03/21 09:31:13;;;;;;;13.00;11.80;;;;;;;;;;6158249;28;20234;-71
2022/03/21 09:34:39;;;;;;;14.63;13.03;;;;;;;;;;6156267;28;20226;-70
2022/03/21 09:38:03;;;;;;;13.63;12.40;;;;;;;;;;6148977;28;20349;-71
2022/03/21 09:41:25;;;;;;;12.93;11.73;;;;;;;;;;6151197;28;20509;-70
2022/03/21 09:44:50;;;;;;;15.47;12.47;;;;;;;;;;6166410;28;20230;-73
2022/03/21 09:48:16;;;;;;;15.97;13.17;;;;;;;;;;6160814;28;20506;-73
2022/03/21 09:51:39;;;;;;;14.57;13.27;;;;;;;;;;6157994;28;20233;-71
2022/03/21 09:55:00;;;;;;;15.93;14.13;;;;;;;;;;6157505;28;20578;-71
2022/03/21 09:58:21;;;;;;;15.20;13.90;;;;;;;;;;6159744;28;20242;-72
2022/03/21 10:01:44;;;;;;;13.93;12.57;;;;;;;;;;6150565;28;21040;-73
2022/03/21 10:05:05;;;;;;;13.20;11.87;;;;;;;;;;6157361;28;20227;-72
2022/03/21 10:08:28;;;;;;;15.13;13.63;;;;;;;;;;6161055;28;20333;-74
2022/03/21 10:11:50;;;;;;;14.87;13.50;;;;;;;;;;6159629;28;20246;-74
2022/03/21 10:15:12;;;;;;;16.00;14.50;;;;;;;;;;6158873;28;20223;-74
2022/03/21 10:18:35;;;;;;;14.60;13.13;;;;;;;;;;6150379;28;20227;-76
2022/03/21 10:22:05;;;;;;;14.70;12.80;;;;;;;;;;6161736;28;20269;-73
2022/03/21 10:25:27;;;;;;;16.10;14.50;;;;;;;;;;6153209;28;20246;-75
2022/03/21 10:28:49;;;;;;;14.13;12.73;;;;;;;;;;6163017;28;20227;-72
2022/03/21 10:32:11;;;;;;;15.83;14.07;;;;;;;;;;6161425;28;20238;-73
2022/03/21 10:35:33;;;;;;;15.00;13.60;;;;;;;;;;6163180;28;20525;-72
2022/03/21 10:39:06;;;;;;;17.83;13.70;;;;;;;;;;6161936;28;20290;-69
2022/03/21 10:42:27;;;;;;;13.63;12.13;;;;;;;;;;6161168;28;20238;-74
2022/03/21 10:45:51;;;;;;;16.20;14.60;;;;;;;;;;6152452;28;20258;-68
2022/03/21 10:49:11;;;;;;;14.27;12.97;;;;;;;;;;6155569;28;20238;-70
2022/03/21 10:52:36;;;;;;;13.70;12.43;;;;;;;;;;6165706;28;20802;-69
2022/03/21 10:56:02;;;;;;;14.13;12.80;;;;;;;;;;6161923;28;20242;-70
2022/03/21 10:59:23;;;;;;;14.30;13.03;;;;;;;;;;6160115;28;20234;-69
2022/03/21 11:02:55;;;;;;;15.32;13.55;;;;;;;;;;6154729;28;20265;-74
2022/03/21 11:06:17;;;;;;;12.23;11.02;;;;;;;;;;6150323;28;20817;-74
2022/03/21 11:09:39;;;;;;;15.18;13.80;;;;;;;;;;6158180;28;20314;-75
2022/03/21 11:13:02;;;;;;;13.07;12.00;;;;;;;;;;6161136;28;20242;-73
2022/03/21 11:16:24;;;;;;;14.38;13.18;;;;;;;;;;6158021;28;20234;-73
2022/03/21 11:19:45;;;;;;;13.05;11.85;;;;;;;;;;6155333;28;20231;-74
2022/03/21 11:23:06;;;;;;;14.52;12.18;;;;;;;;;;6141850;28;20762;-75
2022/03/21 11:26:34;;;;;;;14.13;12.70;;;;;;;;;;6162477;28;20556;-74
2022/03/21 11:30:02;;;;;;;14.30;12.85;;;;;;;;;;6165458;28;20230;-75
2022/03/21 11:33:31;;;;;;;17.20;13.18;;;;;;;;;;6162578;28;20242;-74
2022/03/21 11:36:54;;;;;;;13.75;12.35;;;;;;;;;;6169237;28;20719;-74
2022/03/21 11:40:28;;;;;;;14.32;12.88;;;;;;;;;;6152991;28;20234;-69
2022/03/21 11:44:14;;;;;;;14.57;13.18;;;;;;;;;;6159854;28;20258;-69
2022/03/21 11:47:36;;;;;;;12.68;11.68;;;;;;;;;;6154194;28;20661;-71
2022/03/21 11:51:24;;;;;;;14.48;13.18;;;;;;;;;;6154858;28;20333;-74
2022/03/21 11:54:46;;;;;;;13.05;11.95;;;;;;;;;;6151089;28;20250;-71
2022/03/21 11:58:44;;;;;;;12.75;11.63;;;;;;;;;;6153103;28;20293;-75
2022/03/21 12:02:52;;;;;;;13.60;12.32;;;;;;;;;;6153374;28;20317;-73
2022/03/21 12:06:25;;;;;;;13.52;12.35;;;;;;;;;;6152653;28;22111;-71
2022/03/21 12:09:47;;;;;;;12.85;11.75;;;;;;;;;;6155099;28;20309;-71
2022/03/21 12:13:08;;;;;;;13.93;12.55;;;;;;;;;;6155480;28;20238;-71
2022/03/21 12:16:28;;;;;;;14.88;13.68;;;;;;;;;;6152002;28;20233;-71
2022/03/21 12:20:08;;;;;;;14.18;12.90;;;;;;;;;;6148299;28;20578;-71
2022/03/21 12:23:30;;;;;;;14.90;13.43;;;;;;;;;;6148645;28;20228;-69
2022/03/21 12:26:53;;;;;;;13.60;12.57;;;;;;;;;;6150500;28;20356;-69
2022/03/21 12:30:36;;;;;;;13.27;12.05;;;;;;;;;;6151610;28;20226;-76
2022/03/21 12:34:35;;;;;;;14.98;13.70;;;;;;;;;;6137855;28;20318;-74
2022/03/21 12:37:56;;;;;;;13.20;12.10;;;;;;;;;;6155301;28;20238;-75
2022/03/21 12:41:19;;;;;;;14.13;12.93;;;;;;;;;;6155074;28;20323;-75
2022/03/21 12:44:41;;;;;;;13.77;12.40;;;;;;;;;;6126130;28;21060;-70
2022/03/21 12:48:04;;;;;;;14.52;13.32;;;;;;;;;;6151219;28;20234;-71
2022/03/21 12:51:30;;;;;;;13.55;12.40;;;;;;;;;;6153146;28;20325;-73
2022/03/21 12:54:51;;;;;;;13.95;12.65;;;;;;;;;;6155006;28;20473;-71
2022/03/21 12:58:15;;;;;;;16.38;14.77;;;;;;;;;;6138862;28;20234;-72
2022/03/21 13:01:36;;;;;;;12.73;11.55;;;;;;;;;;6145756;28;20231;-71
2022/03/21 13:12:20;;;;;;;12.88;11.60;;;;;;;;;;6147310;28;20238;-72
2022/03/21 13:15:42;;;;;;;13.57;12.27;;;;;;;;;;6137351;28;20338;-70
2022/03/21 13:19:03;;;;;;;13.75;12.40;;;;;;;;;;6150113;28;20238;-74
2022/03/21 13:22:24;;;;;;;13.45;12.10;;;;;;;;;;6143370;28;20241;-73
2022/03/21 13:25:45;;;;;;;13.93;12.65;;;;;;;;;;6135849;28;20683;-72
2022/03/21 13:29:08;;;;;;;15.07;13.77;;;;;;;;;;6145436;28;20223;-70
2022/03/21 13:32:41;;;;;;;14.18;12.98;;;;;;;;;;6143525;28;20234;-71
2022/03/21 13:36:05;;;;;;;14.80;13.63;;;;;;;;;;6144325;28;20559;-71
2022/03/21 13:39:27;;;;;;;16.98;14.90;;;;;;;;;;6145879;28;20572;-73
2022/03/21 13:42:50;;;;;;;15.70;14.27;;;;;;;;;;6131465;28;21863;-70
2022/03/21 13:46:10;;;;;;;14.05;12.85;;;;;;;;;;6141616;28;20830;-71
2022/03/21 13:49:52;;;;;;;14.02;12.70;;;;;;;;;;6145691;28;20257;-70
2022/03/21 13:53:26;;;;;;;14.27;12.88;;;;;;;;;;6121500;28;20235;-70
2022/03/21 13:56:50;;;;;;;13.85;12.60;;;;;;;;;;6151415;28;20234;-70
2022/03/21 14:00:12;;;;;;;13.93;12.55;;;;;;;;;;6146053;28;20257;-69
2022/03/21 14:03:35;;;;;;;15.40;13.90;;;;;;;;;;6152364;28;20241;-71
2022/03/21 14:06:59;;;;;;;16.35;14.85;;;;;;;;;;6151828;28;20242;-70
2022/03/21 14:10:22;;;;;;;14.40;13.10;;;;;;;;;;6151724;28;20501;-69
2022/03/21 14:13:46;;;;;;;14.93;13.63;;;;;;;;;;6151553;28;20226;-69
2022/03/21 14:17:07;;;;;;;14.80;13.30;;;;;;;;;;6151773;28;20238;-71
2022/03/21 14:20:28;;;;;;;15.45;14.15;;;;;;;;;;6152297;28;20747;-69
2022/03/21 14:23:50;;;;;;;15.38;13.95;;;;;;;;;;6148871;28;20284;-70
2022/03/21 14:27:11;;;;;;;14.38;13.18;;;;;;;;;;6152982;28;20234;-69
2022/03/21 14:30:32;;;;;;;13.68;12.57;;;;;;;;;;6143383;28;20235;-68
2022/03/21 14:33:53;;;;;;;14.75;13.35;;;;;;;;;;6151178;28;20235;-69
2022/03/21 14:37:14;;;;;;;14.45;13.25;;;;;;;;;;6151804;28;20231;-71
2022/03/21 14:40:38;;;;;;;14.40;13.10;;;;;;;;;;6148835;28;20309;-73
2022/03/21 14:43:58;;;;;;;14.45;13.25;;;;;;;;;;6154438;28;20246;-69
2022/03/21 14:47:19;;;;;;;15.40;14.07;;;;;;;;;;6148726;28;20234;-69
2022/03/21 14:50:40;;;;;;;15.82;14.32;;;;;;;;;;6138327;28;20234;-69
2022/03/21 14:54:01;;;;;;;15.68;14.18;;;;;;;;;;6149319;28;21012;-70
2022/03/21 14:57:24;;;;;;;14.10;12.80;;;;;;;;;;6157156;28;20305;-71
2022/03/21 15:00:45;;;;;;;13.70;12.60;;;;;;;;;;6143552;28;21019;-70
2022/03/21 15:04:06;;;;;;;14.90;13.43;;;;;;;;;;6151207;28;20242;-72
2022/03/21 15:07:27;;;;;;;14.18;12.98;;;;;;;;;;6153538;28;20260;-72
2022/03/21 15:10:48;;;;;;;15.27;13.98;;;;;;;;;;6157859;28;20222;-72
2022/03/21 15:14:11;;;;;;;15.45;13.90;;;;;;;;;;6150836;28;20234;-70
2022/03/21 15:17:31;;;;;;;15.90;14.43;;;;;;;;;;6152577;28;20621;-72
2022/03/21 15:20:53;;;;;;;14.93;13.45;;;;;;;;;;6158405;28;20325;-71
2022/03/21 15:24:13;;;;;;;14.20;13.00;;;;;;;;;;6152540;28;20345;-72
2022/03/21 15:27:34;;;;;;;16.27;14.67;;;;;;;;;;6156925;28;20234;-71
2022/03/21 15:30:56;;;;;;;15.73;14.10;;;;;;;;;;6146462;28;20226;-73
2022/03/21 15:34:17;;;;;;;13.53;12.33;;;;;;;;;;6146988;28;20316;-73
2022/03/21 15:44:57;;;;;;;14.85;13.40;;;;;;;;;;6155370;28;20258;-74
2022/03/21 15:48:24;;;;;;;14.75;13.45;;;;;;;;;;6161447;28;20235;-73
2022/03/21 15:51:45;;;;;;;14.60;13.33;;;;;;;;;;6160093;28;21102;-73
2022/03/21 15:55:07;;;;;;;14.37;12.70;;;;;;;;;;6161513;28;20248;-73
2022/03/21 15:58:28;;;;;;;13.98;12.63;;;;;;;;;;6168272;28;20226;-71
2022/03/21 16:01:49;;;;;;;13.63;12.40;;;;;;;;;;6161631;28;20801;-77
2022/03/21 16:05:12;;;;;;;14.50;13.23;;;;;;;;;;6155713;28;20310;-73
2022/03/21 16:08:33;;;;;;;14.00;12.67;;;;;;;;;;6150263;28;20231;-74
2022/03/21 16:11:55;;;;;;;14.33;12.70;;;;;;;;;;6152537;28;20234;-72
2022/03/21 16:15:17;;;;;;;14.43;13.00;;;;;;;;;;6147229;28;20286;-73
2022/03/21 16:18:39;;;;;;;13.80;12.60;;;;;;;;;;6151706;28;20239;-72
2022/03/21 16:22:01;;;;;;;14.93;13.63;;;;;;;;;;6152640;28;20243;-74
2022/03/21 16:25:22;;;;;;;14.63;13.17;;;;;;;;;;6145788;28;20234;-73
2022/03/21 16:28:43;;;;;;;13.83;12.43;;;;;;;;;;6152078;28;20350;-73
2022/03/21 16:32:07;;;;;;;14.07;12.73;;;;;;;;;;6152954;28;20231;-74
2022/03/21 16:35:29;;;;;;;12.97;11.77;;;;;;;;;;6151813;28;20238;-73
2022/03/21 16:38:53;;;;;;;13.00;11.90;;;;;;;;;;6155106;28;20226;-72
2022/03/21 16:42:14;;;;;;;13.17;11.97;;;;;;;;;;6156613;28;20277;-72
2022/03/21 16:45:35;;;;;;;14.97;13.67;;;;;;;;;;6160132;28;20227;-72
2022/03/21 16:48:56;;;;;;;15.13;13.73;;;;;;;;;;6164752;28;20249;-73
2022/03/21 16:52:18;;;;;;;14.67;13.27;;;;;;;;;;6151761;28;20593;-72
2022/03/21 16:55:40;;;;;;;14.80;13.43;;;;;;;;;;6159303;28;20592;-73
2022/03/21 16:59:01;;;;;;;13.37;12.03;;;;;;;;;;6157218;28;20234;-73
2022/03/21 17:02:23;;;;;;;12.43;11.27;;;;;;;;;;6153700;28;20585;-80
2022/03/21 17:05:46;;;;;;;14.93;13.73;;;;;;;;;;6158607;28;20246;-75
2022/03/21 17:09:07;;;;;;;13.20;12.00;;;;;;;;;;6166678;28;20648;-74
2022/03/21 17:12:30;;;;;;;12.60;11.43;;;;;;;;;;6167524;28;20234;-74
2022/03/21 17:15:51;;;;;;;12.77;11.73;;;;;;;;;;6165037;28;20245;-76
2022/03/21 17:23:09;;;;;;;13.37;12.07;;;;;;;;;;6145726;28;20254;-75
2022/03/21 17:26:30;;;;;;;14.43;12.93;;;;;;;;;;6141397;28;20234;-76
2022/03/21 17:29:52;;;;;;;13.20;12.00;;;;;;;;;;6147906;28;20619;-75
2022/03/21 17:33:13;;;;;;;13.90;12.63;;;;;;;;;;6151660;28;20321;-76
2022/03/21 17:36:34;;;;;;;13.83;12.67;;;;;;;;;;6147766;28;20246;-77
2022/03/21 17:39:56;;;;;;;13.17;12.00;;;;;;;;;;6156406;28;20227;-75
2022/03/21 17:43:17;;;;;;;14.83;13.43;;;;;;;;;;6154332;28;20234;-74
2022/03/21 17:46:39;;;;;;;12.87;11.67;;;;;;;;;;6152447;28;20238;-75
2022/03/21 17:50:00;;;;;;;13.50;12.20;;;;;;;;;;6149043;28;20242;-75
2022/03/21 17:53:27;;;;;;;14.30;12.83;;;;;;;;;;6159395;28;20222;-76
2022/03/21 17:56:48;;;;;;;14.57;13.17;;;;;;;;;;6153873;28;20246;-76
2022/03/21 18:00:10;;;;;;;12.93;11.80;;;;;;;;;;6147630;28;20246;-75
2022/03/21 18:03:35;;;;;;;15.57;12.17;;;;;;;;;;6153842;28;20230;-74
2022/03/21 18:06:57;;;;;;;14.40;12.87;;;;;;;;;;6150253;28;20254;-75
2022/03/21 18:10:18;;;;;;;14.57;13.03;;;;;;;;;;6144129;28;20237;-75
2022/03/21 18:13:39;;;;;;;13.77;12.67;;;;;;;;;;6134735;28;20227;-75
2022/03/21 18:17:00;;;;;;;14.27;12.87;;;;;;;;;;6136437;28;20525;-74
2022/03/21 18:20:22;;;;;;;13.97;12.60;;;;;;;;;;6149464;28;20543;-74
2022/03/21 18:23:43;;;;;;;13.07;11.87;;;;;;;;;;6123319;28;20235;-76
2022/03/21 18:27:05;;;;;;;14.87;13.47;;;;;;;;;;6145871;28;20261;-73
2022/03/21 18:30:26;;;;;;;14.40;12.90;;;;;;;;;;6143342;28;21140;-76
2022/03/21 18:33:47;;;;;;;14.60;13.03;;;;;;;;;;6150719;28;20231;-74
2022/03/21 18:37:10;;;;;;;13.77;12.47;;;;;;;;;;6148900;28;20824;-74
2022/03/21 18:40:31;;;;;;;17.00;14.20;;;;;;;;;;6154814;28;20322;-76
2022/03/21 18:43:53;;;;;;;15.23;13.70;;;;;;;;;;6161018;28;20619;-74
2022/03/21 18:47:14;;;;;;;14.20;12.87;;;;;;;;;;6155771;28;20234;-74
2022/03/21 18:50:35;;;;;;;15.17;13.57;;;;;;;;;;6147110;28;20230;-74
2022/03/21 18:53:58;;;;;;;15.13;13.70;;;;;;;;;;6153684;28;20230;-76
2022/03/21 18:57:19;;;;;;;16.90;15.23;;;;;;;;;;6153361;28;20284;-70
2022/03/21 19:00:40;;;;;;;15.60;14.00;;;;;;;;;;6147746;28;20278;-75
2022/03/21 19:04:01;;;;;;;15.00;13.50;;;;;;;;;;6169017;28;20227;-74
2022/03/21 19:07:22;;;;;;;13.83;12.53;;;;;;;;;;6158276;28;21072;-73
2022/03/21 19:10:47;;;;;;;14.90;13.47;;;;;;;;;;6160907;28;20230;-72
2022/03/21 19:14:07;;;;;;;14.30;12.90;;;;;;;;;;6154959;28;20226;-76
2022/03/21 19:17:28;;;;;;;15.93;14.43;;;;;;;;;;6151077;28;20324;-73
2022/03/21 19:20:50;;;;;;;14.97;12.47;;;;;;;;;;6163095;28;20223;-73
2022/03/21 19:24:11;;;;;;;15.03;13.63;;;;;;;;;;6164482;28;20222;-75
2022/03/21 19:27:34;;;;;;;15.00;13.60;;;;;;;;;;6166645;28;20234;-77
2022/03/21 19:30:55;;;;;;;14.10;12.80;;;;;;;;;;6163504;28;20235;-75
2022/03/21 19:34:16;;;;;;;15.83;14.23;;;;;;;;;;6168911;28;20247;-74
2022/03/21 19:37:37;;;;;;;14.93;13.50;;;;;;;;;;6158712;28;20293;-79
2022/03/21 19:40:58;;;;;;;15.77;14.20;;;;;;;;;;6165551;28;20231;-72
2022/03/21 19:44:21;;;;;;;16.30;14.77;;;;;;;;;;6169623;28;20642;-72
2022/03/21 19:47:43;;;;;;;13.93;12.63;;;;;;;;;;6162404;28;20318;-72
2022/03/21 19:51:04;;;;;;;14.37;12.83;;;;;;;;;;6165074;28;20843;-78
2022/03/21 19:54:25;;;;;;;17.63;13.03;;;;;;;;;;6169520;28;20234;-78
2022/03/21 19:57:47;;;;;;;13.83;12.53;;;;;;;;;;6163811;28;20766;-73
2022/03/21 20:01:10;;;;;;;14.10;12.80;;;;;;;;;;6161521;28;20226;-73
2022/03/21 20:04:31;;;;;;;14.40;12.70;;;;;;;;;;6169922;28;20250;-80
2022/03/21 20:07:52;;;;;;;15.53;13.90;;;;;;;;;;6156904;28;20219;-76
2022/03/21 20:11:14;;;;;;;14.47;13.17;;;;;;;;;;6169175;28;20234;-77